Time;durP1;ratioP1;P1;durP2;ratioP2;P2;SDS_P1;SDS_P2;PMS_P1;PMS_P2;Temp;Humidity;BMP_temperature;BMP_pressure;BME280_temperature;BME280_humidity;BME280_pressure;Samples;Min_cycle;Max_cycle;Signal;HPM_P1;HPM_P2
2023/04/20 03:03:00;;;;;;;;;;;16.40;52.30;;;;;;4868629;28;45678;-60
2023/04/20 03:05:25;;;;;;;;;;;16.40;52.30;;;;;;4908894;28;45033;-58
2023/04/20 03:07:51;;;;;;;;;;;16.40;52.30;;;;;;4919266;28;45936;-60
2023/04/20 03:10:17;;;;;;;;;;;16.40;52.30;;;;;;4892144;28;45411;-59
2023/04/20 03:12:43;;;;;;;;;;;16.40;52.30;;;;;;4884671;28;45785;-60
2023/04/20 03:15:09;;;;;;;;;;;16.40;52.30;;;;;;4911127;28;45777;-60
2023/04/20 03:17:35;;;;;;;;;;;16.40;52.30;;;;;;4903108;28;47013;-58
2023/04/20 03:20:00;;;;;;;;;;;16.40;52.30;;;;;;4916900;28;45485;-59
2023/04/20 03:22:25;;;;;;;;;;;16.40;52.20;;;;;;4915038;28;45125;-59
2023/04/20 03:24:51;;;;;;;;;;;16.40;52.30;;;;;;4919355;28;45492;-59
2023/04/20 03:27:16;;;;;;;;;;;16.40;52.30;;;;;;4914918;28;46792;-57
2023/04/20 03:29:42;;;;;;;;;;;16.40;52.30;;;;;;4925440;28;45993;-57
2023/04/20 03:32:07;;;;;;;;;;;16.40;52.30;;;;;;4917901;28;45480;-57
2023/04/20 03:34:33;;;;;;;;;;;16.40;52.30;;;;;;4921851;28;45822;-58
2023/04/20 03:36:58;;;;;;;;;;;16.40;52.30;;;;;;4909027;28;45086;-59
2023/04/20 03:39:24;;;;;;;;;;;16.40;52.30;;;;;;4917006;28;46005;-59
2023/04/20 03:41:50;;;;;;;;;;;16.30;52.30;;;;;;4885703;28;45778;-61
2023/04/20 03:44:15;;;;;;;;;;;16.30;52.20;;;;;;4925855;28;45460;-59
2023/04/20 03:46:41;;;;;;;;;;;16.30;52.30;;;;;;4914139;28;45398;-58
2023/04/20 03:49:06;;;;;;;;;;;16.30;52.30;;;;;;4920686;28;44681;-58
2023/04/20 03:51:32;;;;;;;;;;;16.30;52.30;;;;;;4916016;28;45401;-59
2023/04/20 03:53:57;;;;;;;;;;;16.30;52.30;;;;;;4923570;28;45467;-58
2023/04/20 03:56:25;;;;;;;;;;;16.30;52.30;;;;;;4912835;28;46064;-59
2023/04/20 03:58:51;;;;;;;;;;;16.30;52.30;;;;;;4923991;28;44823;-60
2023/04/20 04:01:16;;;;;;;;;;;16.30;52.30;;;;;;4894101;28;44990;-58
2023/04/20 04:03:42;;;;;;;;;;;16.30;52.30;;;;;;4912805;28;44694;-59
2023/04/20 04:06:07;;;;;;;;;;;16.30;52.30;;;;;;4913267;28;45936;-58
2023/04/20 04:08:33;;;;;;;;;;;16.30;52.30;;;;;;4913639;28;46476;-58
2023/04/20 04:10:59;;;;;;;;;;;16.30;52.30;;;;;;4911947;28;45191;-58
2023/04/20 04:13:24;;;;;;;;;;;16.30;52.30;;;;;;4931079;28;45326;-58
2023/04/20 04:15:50;;;;;;;;;;;16.30;52.30;;;;;;4914859;28;46063;-59
2023/04/20 04:18:15;;;;;;;;;;;16.30;52.30;;;;;;4915136;28;45243;-63
2023/04/20 04:20:41;;;;;;;;;;;16.30;52.30;;;;;;4917994;28;45354;-58
2023/04/20 04:23:06;;;;;;;;;;;16.20;52.30;;;;;;4904851;28;45714;-59
2023/04/20 04:25:32;;;;;;;;;;;16.20;52.20;;;;;;4910432;28;45427;-59
2023/04/20 04:27:58;;;;;;;;;;;16.30;52.30;;;;;;4913932;28;45469;-58
2023/04/20 04:30:24;;;;;;;;;;;16.20;52.20;;;;;;4896100;28;45242;-55
2023/04/20 04:32:50;;;;;;;;;;;16.20;52.20;;;;;;4928917;28;45146;-55
2023/04/20 04:35:16;;;;;;;;;;;16.20;52.20;;;;;;4917662;28;46634;-57
2023/04/20 04:37:41;;;;;;;;;;;16.20;52.20;;;;;;4902269;28;45243;-56
2023/04/20 04:40:08;;;;;;;;;;;16.20;52.20;;;;;;4899975;28;45177;-59
2023/04/20 04:42:33;;;;;;;;;;;16.20;52.20;;;;;;4921031;28;45292;-58
2023/04/20 04:45:01;;;;;;;;;;;16.20;52.20;;;;;;4931314;28;44923;-62
2023/04/20 04:47:28;;;;;;;;;;;16.20;52.30;;;;;;4900289;28;45552;-59
2023/04/20 04:49:54;;;;;;;;;;;16.20;52.30;;;;;;4922620;28;45232;-59
2023/04/20 04:52:19;;;;;;;;;;;16.20;52.30;;;;;;4915198;28;45280;-61
2023/04/20 04:54:45;;;;;;;;;;;16.20;52.30;;;;;;4907343;28;46062;-59
2023/04/20 04:57:11;;;;;;;;;;;16.20;52.30;;;;;;4917430;28;44612;-59
2023/04/20 04:59:37;;;;;;;;;;;16.20;52.30;;;;;;4929330;28;44675;-58
2023/04/20 05:02:02;;;;;;;;;;;16.20;52.30;;;;;;4891241;28;46361;-59
2023/04/20 05:04:28;;;;;;;;;;;16.20;52.20;;;;;;4924671;28;45363;-58
2023/04/20 05:06:53;;;;;;;;;;;16.20;52.30;;;;;;4922661;28;45439;-57
2023/04/20 05:09:18;;;;;;;;;;;16.20;52.30;;;;;;4923458;28;45124;-58
2023/04/20 05:11:44;;;;;;;;;;;16.20;52.30;;;;;;4912793;28;45652;-57
2023/04/20 05:14:09;;;;;;;;;;;16.20;52.30;;;;;;4921006;28;45453;-58
2023/04/20 05:16:35;;;;;;;;;;;16.20;52.30;;;;;;4919313;28;45537;-58
2023/04/20 05:19:00;;;;;;;;;;;16.20;52.30;;;;;;4928893;28;45563;-61
2023/04/20 05:21:27;;;;;;;;;;;16.10;52.20;;;;;;4913383;28;45285;-58
2023/04/20 05:23:52;;;;;;;;;;;16.20;52.20;;;;;;4927971;28;45925;-57
2023/04/20 05:26:18;;;;;;;;;;;16.20;52.20;;;;;;4916948;28;45035;-58
2023/04/20 05:28:43;;;;;;;;;;;16.30;51.90;;;;;;4915956;28;45336;-58
2023/04/20 05:31:09;;;;;;;;;;;16.50;51.40;;;;;;4915457;28;45451;-57
2023/04/20 05:33:35;;;;;;;;;;;16.50;51.20;;;;;;4915449;28;46851;-58
2023/04/20 05:36:00;;;;;;;;;;;16.50;51.40;;;;;;4920360;28;45135;-59
2023/04/20 05:38:26;;;;;;;;;;;16.50;51.60;;;;;;4928165;28;45261;-59
2023/04/20 05:40:51;;;;;;;;;;;16.40;51.60;;;;;;4913228;28;45332;-57
2023/04/20 05:43:18;;;;;;;;;;;16.40;51.80;;;;;;4896889;28;46970;-57
2023/04/20 05:45:45;;;;;;;;;;;16.30;51.80;;;;;;4920660;28;45222;-58
2023/04/20 05:48:10;;;;;;;;;;;16.30;51.80;;;;;;4905188;28;45340;-58
2023/04/20 05:50:36;;;;;;;;;;;16.30;51.90;;;;;;4920262;28;44646;-59
2023/04/20 05:53:01;;;;;;;;;;;16.30;51.90;;;;;;4912400;28;45872;-60
2023/04/20 05:55:27;;;;;;;;;;;16.30;51.90;;;;;;4920121;28;45275;-61
2023/04/20 05:57:52;;;;;;;3.88;1.23;;;16.30;51.80;;;;;;4933882;28;45365;-60
2023/04/20 06:00:21;;;;;;;1.95;1.63;;;16.40;51.90;;;;;;4918488;28;44712;-62
2023/04/20 06:02:47;;;;;;;1.90;1.30;;;16.40;51.90;;;;;;4901814;28;46789;-60
2023/04/20 06:05:12;;;;;;;1.75;1.65;;;16.50;51.90;;;;;;4919000;28;45513;-61
2023/04/20 06:07:38;;;;;;;1.75;1.35;;;16.70;51.80;;;;;;4895101;28;45582;-61
2023/04/20 06:10:05;;;;;;;;;;;16.90;51.50;;;;;;4884236;28;45454;-61
2023/04/20 06:12:31;;;;;;;2.47;1.35;;;17.10;51.10;;;;;;4918230;28;45941;-60
2023/04/20 06:14:57;;;;;;;1.63;1.40;;;17.30;51.00;;;;;;4915199;28;44962;-61
2023/04/20 06:17:22;;;;;;;1.40;1.30;;;17.50;50.70;;;;;;4917156;28;45661;-60
2023/04/20 06:19:48;;;;;;;2.30;1.30;;;17.60;50.50;;;;;;4924925;28;44703;-60
2023/04/20 06:22:14;;;;;;;1.80;1.23;;;17.80;50.40;;;;;;4897266;28;45342;-63
2023/04/20 06:24:41;;;;;;;1.10;1.00;;;18.00;50.30;;;;;;4903131;28;45855;-58
2023/04/20 06:27:07;;;;;;;1.67;1.40;;;18.10;50.10;;;;;;4918525;28;45233;-59
2023/04/20 06:29:33;;;;;;;3.03;1.45;;;18.30;50.00;;;;;;4914481;28;44838;-60
2023/04/20 06:31:58;;;;;;;1.15;1.05;;;18.50;49.90;;;;;;4901662;28;45388;-60
2023/04/20 06:34:24;;;;;;;0.90;0.90;;;18.60;49.80;;;;;;4923125;28;45261;-60
2023/04/20 06:36:49;;;;;;;2.03;1.37;;;18.70;49.70;;;;;;4921167;28;45451;-61
2023/04/20 06:39:16;;;;;;;2.10;1.40;;;18.90;49.60;;;;;;4906368;28;45674;-61
2023/04/20 06:41:41;;;;;;;1.58;1.30;;;19.20;49.40;;;;;;4884738;28;45203;-60
2023/04/20 06:44:07;;;;;;;1.35;1.25;;;19.20;49.50;;;;;;4911086;28;44941;-70
2023/04/20 06:46:33;;;;;;;1.42;1.05;;;19.30;49.50;;;;;;4903473;28;45245;-60
2023/04/20 06:48:58;;;;;;;1.30;1.20;;;19.40;49.50;;;;;;4925646;28;45480;-61
2023/04/20 06:51:25;;;;;;;1.13;1.02;;;19.50;49.40;;;;;;4922055;28;45935;-61
2023/04/20 06:53:51;;;;;;;1.17;1.08;;;19.70;49.30;;;;;;4911890;28;45368;-59
2023/04/20 06:56:16;;;;;;;2.88;1.20;;;19.80;49.10;;;;;;4919909;28;44714;-60
2023/04/20 06:58:42;;;;;;;1.10;1.00;;;19.90;49.00;;;;;;4918136;28;45214;-61
2023/04/20 07:01:08;;;;;;;1.30;1.00;;;20.00;48.90;;;;;;4902182;28;45190;-60
2023/04/20 07:03:33;;;;;;;0.98;0.82;;;20.10;48.90;;;;;;4905930;28;45424;-58
2023/04/20 07:05:59;;;;;;;2.60;1.17;;;20.20;48.70;;;;;;4918681;28;45245;-63
2023/04/20 07:08:25;;;;;;;1.85;1.08;;;20.30;48.70;;;;;;4905848;28;45452;-61
2023/04/20 07:10:50;;;;;;;1.10;0.85;;;20.40;48.60;;;;;;4916555;28;45380;-61
2023/04/20 07:13:16;;;;;;;1.30;1.17;;;20.50;48.60;;;;;;4900440;28;45512;-61
2023/04/20 07:15:43;;;;;;;1.23;1.13;;;20.60;48.50;;;;;;4883209;28;44925;-60
2023/04/20 07:18:09;;;;;;;2.65;0.90;;;20.60;48.40;;;;;;4920474;28;46228;-62
2023/04/20 07:20:35;;;;;;;1.00;0.90;;;20.70;48.30;;;;;;4896068;28;45585;-61
2023/04/20 07:23:00;;;;;;;;;;;20.80;48.30;;;;;;4920455;28;45341;-59
2023/04/20 07:25:26;;;;;;;1.10;1.00;;;20.80;47.60;;;;;;4900946;28;45161;-58
2023/04/20 07:27:52;;;;;;;0.90;0.80;;;20.90;48.10;;;;;;4891594;28;44702;-60
2023/04/20 07:30:18;;;;;;;1.38;0.98;;;21.00;48.10;;;;;;4919044;28;46166;-60
2023/04/20 07:32:44;;;;;;;1.45;0.80;;;21.10;48.10;;;;;;4907321;28;45261;-60
2023/04/20 07:35:09;;;;;;;3.05;0.80;;;21.20;48.00;;;;;;4877282;28;45335;-60
2023/04/20 07:37:35;;;;;;;2.30;1.23;;;21.20;47.80;;;;;;4896204;28;45347;-60
2023/04/20 07:40:05;;;;;;;1.20;1.10;;;21.50;47.50;;;;;;4904344;28;46037;-61
2023/04/20 07:42:35;;;;;;;1.40;1.00;;;21.60;47.20;;;;;;4903421;28;45199;-60
2023/04/20 07:45:02;;;;;;;1.08;0.98;;;21.70;47.00;;;;;;4922117;28;45146;-59
2023/04/20 07:47:27;;;;;;;1.17;1.07;;;21.90;46.80;;;;;;4877258;28;45350;-58
2023/04/20 07:49:53;;;;;;;2.00;1.10;;;22.10;46.70;;;;;;4919262;28;45790;-59
2023/04/20 07:52:19;;;;;;;1.25;0.95;;;22.20;46.40;;;;;;4887245;28;45297;-58
2023/04/20 07:54:45;;;;;;;0.90;0.90;;;22.30;46.20;;;;;;4901423;28;45470;-61
2023/04/20 07:57:10;;;;;;;1.05;0.95;;;22.40;45.90;;;;;;4914126;28;45144;-62
2023/04/20 07:59:36;;;;;;;2.47;0.98;;;22.50;45.70;;;;;;4893439;28;46523;-60
2023/04/20 08:02:02;;;;;;;1.13;0.95;;;22.60;45.50;;;;;;4900263;28;45946;-59
2023/04/20 08:04:28;;;;;;;2.15;1.00;;;22.70;45.40;;;;;;4900574;28;46055;-61
2023/04/20 08:06:53;;;;;;;1.13;0.90;;;22.90;45.20;;;;;;4889340;28;45318;-61
2023/04/20 08:09:19;;;;;;;1.10;0.90;;;23.00;45.10;;;;;;4922411;28;46380;-62
2023/04/20 08:11:45;;;;;;;1.50;0.90;;;23.00;45.00;;;;;;4916834;28;45612;-59
2023/04/20 08:14:11;;;;;;;1.08;0.98;;;23.10;44.90;;;;;;4924545;28;45292;-61
2023/04/20 08:16:37;;;;;;;4.93;0.90;;;23.20;44.80;;;;;;4916212;28;45490;-59
2023/04/20 08:19:08;;;;;;;2.00;0.90;;;23.30;44.70;;;;;;4899129;28;45400;-59
2023/04/20 08:21:35;;;;;;;4.83;0.90;;;23.40;44.60;;;;;;4898619;28;45724;-59
2023/04/20 08:24:01;;;;;;;3.83;0.80;;;23.50;44.50;;;;;;4914825;28;45471;-59
2023/04/20 08:26:26;;;;;;;1.03;0.90;;;23.50;44.40;;;;;;4909095;28;45542;-59
2023/04/20 08:28:52;;;;;;;1.60;0.80;;;23.60;44.20;;;;;;4922604;28;45198;-60
2023/04/20 08:31:17;;;;;;;1.10;1.00;;;23.70;44.10;;;;;;4894340;28;45072;-61
2023/04/20 08:33:43;;;;;;;0.80;0.80;;;23.70;44.10;;;;;;4915207;28;47552;-61
2023/04/20 08:36:08;;;;;;;1.47;0.90;;;23.80;44.00;;;;;;4915801;28;45196;-59
2023/04/20 08:38:34;;;;;;;1.20;0.90;;;23.80;43.90;;;;;;4900676;28;46185;-59
2023/04/20 08:41:00;;;;;;;1.00;0.87;;;23.80;43.80;;;;;;4915684;28;45714;-61
2023/04/20 08:43:25;;;;;;;1.10;0.87;;;23.80;43.90;;;;;;4886991;28;45354;-59
2023/04/20 08:45:51;;;;;;;2.57;0.90;;;23.90;43.90;;;;;;4899450;28;45657;-61
2023/04/20 08:48:17;;;;;;;2.30;0.80;;;23.90;43.80;;;;;;4880872;28;44958;-61
2023/04/20 08:50:42;;;;;;;1.40;0.90;;;24.00;43.80;;;;;;4888592;28;45755;-60
2023/04/20 08:53:08;;;;;;;2.17;0.90;;;24.00;43.70;;;;;;4927563;28;45405;-60
2023/04/20 08:55:34;;;;;;;0.98;0.80;;;24.00;43.60;;;;;;4913144;28;44737;-59
2023/04/20 08:57:59;;;;;;;2.60;1.00;;;24.10;43.70;;;;;;4906169;28;45859;-59
2023/04/20 09:00:25;;;;;;;1.00;0.90;;;24.10;43.60;;;;;;4881669;28;45287;-61
2023/04/20 09:02:52;;;;;;;1.98;0.80;;;24.10;43.60;;;;;;4925155;28;45302;-59
2023/04/20 09:05:27;;;;;;;1.85;0.70;;;24.20;43.50;;;;;;4879973;28;45487;-59
2023/04/20 09:07:54;;;;;;;2.00;1.10;;;24.20;43.50;;;;;;4904005;28;46307;-60
2023/04/20 09:10:22;;;;;;;1.48;0.70;;;24.30;43.50;;;;;;4908520;28;45938;-61
2023/04/20 09:12:48;;;;;;;1.27;1.00;;;24.30;43.50;;;;;;4918992;28;45334;-60
2023/04/20 09:15:30;;;;;;;0.90;0.70;;;24.30;43.40;;;;;;4882269;28;45892;-62
2023/04/20 09:17:55;;;;;;;1.30;0.82;;;24.40;43.50;;;;;;4900058;28;45978;-59
2023/04/20 09:20:33;;;;;;;2.00;0.63;;;24.40;43.40;;;;;;4910882;28;45229;-59
2023/04/20 09:23:31;;;;;;;2.20;0.77;;;24.40;43.40;;;;;;4888239;28;45459;-60
2023/04/20 09:25:56;;;;;;;1.38;0.80;;;24.50;43.40;;;;;;4881434;28;45543;-61
2023/04/20 09:28:22;;;;;;;2.80;0.80;;;24.50;43.30;;;;;;4901541;28;46166;-59
2023/04/20 09:30:49;;;;;;;2.30;0.90;;;24.60;43.20;;;;;;4915726;28;45187;-60
2023/04/20 09:33:15;;;;;;;1.50;0.90;;;24.60;43.10;;;;;;4885499;28;44809;-61
2023/04/20 09:35:41;;;;;;;1.87;0.80;;;24.70;43.20;;;;;;4910995;28;46069;-61
2023/04/20 09:38:07;;;;;;;1.88;1.00;;;24.70;43.10;;;;;;4904491;28;46497;-59
2023/04/20 09:40:33;;;;;;;2.45;0.70;;;24.70;43.10;;;;;;4903362;28;45272;-58
2023/04/20 09:43:03;;;;;;;3.08;1.05;;;24.70;43.10;;;;;;4927156;28;45155;-60
2023/04/20 09:45:28;;;;;;;1.13;0.85;;;24.80;43.10;;;;;;4892147;28;45367;-60
2023/04/20 09:47:54;;;;;;;2.10;0.70;;;24.80;43.00;;;;;;4871813;28;46765;-60
2023/04/20 09:50:20;;;;;;;1.95;1.00;;;24.80;43.00;;;;;;4910540;28;45581;-62
2023/04/20 09:52:48;;;;;;;3.60;1.00;;;24.80;43.00;;;;;;4895827;28;45745;-60
2023/04/20 09:55:13;;;;;;;1.50;0.80;;;24.80;43.00;;;;;;4887173;28;45359;-60
2023/04/20 09:57:39;;;;;;;1.40;0.80;;;24.80;43.00;;;;;;4886222;28;45299;-61
2023/04/20 10:00:06;;;;;;;1.75;0.80;;;24.90;43.00;;;;;;4879548;28;45546;-64
2023/04/20 10:02:32;;;;;;;3.47;1.05;;;24.90;43.00;;;;;;4875328;28;44801;-59
2023/04/20 10:04:58;;;;;;;1.40;0.73;;;24.90;42.90;;;;;;4923859;28;45258;-59
2023/04/20 10:07:28;;;;;;;2.77;1.00;;;24.90;42.90;;;;;;4917689;28;45858;-60
2023/04/20 10:10:10;;;;;;;4.40;1.13;;;24.80;42.90;;;;;;4903054;28;45355;-60
2023/04/20 10:12:56;;;;;;;1.80;0.80;;;24.80;42.90;;;;;;4921806;28;45310;-59
2023/04/20 10:15:22;;;;;;;2.05;0.82;;;24.70;43.10;;;;;;4883202;28;45326;-58
2023/04/20 10:17:48;;;;;;;2.35;0.80;;;24.60;43.20;;;;;;4919872;28;45236;-59
2023/04/20 10:20:24;;;;;;;1.50;0.73;;;24.60;43.20;;;;;;4901538;28;46758;-61
2023/04/20 10:22:51;;;;;;;2.40;0.82;;;24.50;43.30;;;;;;4910064;28;45360;-60
2023/04/20 10:25:21;;;;;;;1.00;0.90;;;24.40;43.30;;;;;;4900175;28;44992;-60
2023/04/20 10:27:58;;;;;;;1.70;0.77;;;24.40;43.40;;;;;;4922854;28;45353;-59
2023/04/20 10:30:24;;;;;;;1.00;0.90;;;24.40;43.50;;;;;;4890288;28;45428;-59
2023/04/20 10:33:10;;;;;;;2.28;0.70;;;24.30;43.60;;;;;;4916475;28;45347;-59
2023/04/20 10:35:49;;;;;;;1.23;0.98;;;24.20;44.30;;;;;;4914595;28;45285;-60
2023/04/20 10:38:31;;;;;;;1.80;0.98;;;24.10;43.80;;;;;;4924802;28;46434;-61
2023/04/20 10:41:07;;;;;;;2.20;0.90;;;24.10;43.90;;;;;;4895260;28;45745;-60
2023/04/20 10:43:34;;;;;;;1.73;0.90;;;24.00;43.90;;;;;;4903797;28;44820;-60
2023/04/20 10:45:59;;;;;;;1.93;1.10;;;24.00;44.00;;;;;;4900906;28;45169;-61
2023/04/20 10:48:25;;;;;;;1.33;1.03;;;23.90;44.10;;;;;;4904766;28;45364;-60
2023/04/20 10:50:50;;;;;;;1.77;0.93;;;23.80;44.10;;;;;;4896716;28;45307;-61
2023/04/20 10:53:20;;;;;;;1.13;1.00;;;23.80;44.20;;;;;;4927378;28;45090;-61
2023/04/20 10:55:46;;;;;;;1.10;0.80;;;23.70;44.30;;;;;;4914764;28;45586;-61
2023/04/20 10:58:22;;;;;;;2.40;1.03;;;23.70;44.30;;;;;;4902914;28;45363;-60
2023/04/20 11:00:56;;;;;;;1.45;0.93;;;23.60;44.40;;;;;;4911577;28;44650;-60
2023/04/20 11:03:22;;;;;;;3.37;1.30;;;23.60;44.50;;;;;;4902854;28;44823;-64
2023/04/20 11:05:49;;;;;;;1.70;1.23;;;23.60;44.10;;;;;;4920286;28;45405;-65
2023/04/20 11:08:14;;;;;;;4.00;1.27;;;23.50;44.20;;;;;;4901668;28;46255;-64
2023/04/20 11:10:41;;;;;;;1.30;0.90;;;23.50;44.40;;;;;;4892163;28;45611;-64
2023/04/20 11:13:07;;;;;;;2.10;0.88;;;23.40;44.50;;;;;;4892703;28;45502;-64
2023/04/20 11:15:33;;;;;;;1.77;1.00;;;23.40;44.60;;;;;;4896330;28;45391;-64
2023/04/20 11:18:08;;;;;;;2.00;1.10;;;23.30;44.60;;;;;;4891487;28;45239;-64
2023/04/20 11:20:35;;;;;;;1.10;1.00;;;23.30;44.70;;;;;;4899009;28;45904;-63
2023/04/20 11:23:03;;;;;;;4.30;1.38;;;23.30;44.80;;;;;;4899535;28;45400;-63
2023/04/20 11:25:29;;;;;;;1.70;1.02;;;23.20;45.50;;;;;;4904928;28;45319;-64
2023/04/20 11:28:10;;;;;;;1.70;1.25;;;23.20;45.00;;;;;;4909542;28;45282;-64
2023/04/20 11:30:41;;;;;;;3.25;1.02;;;23.20;45.00;;;;;;4907014;28;45767;-63
2023/04/20 11:33:07;;;;;;;1.15;1.05;;;23.20;45.10;;;;;;4889241;28;44857;-63
2023/04/20 11:35:40;;;;;;;1.20;1.10;;;23.10;45.10;;;;;;4881595;28;45307;-64
2023/04/20 11:38:06;;;;;;;2.67;1.20;;;23.10;45.20;;;;;;4906010;28;46089;-64
2023/04/20 11:40:32;;;;;;;1.70;1.10;;;23.00;45.20;;;;;;4894901;28;44870;-64
2023/04/20 11:42:58;;;;;;;1.23;1.10;;;23.00;45.30;;;;;;4907119;28;45558;-65
2023/04/20 11:45:24;;;;;;;4.45;1.15;;;23.00;45.30;;;;;;4896505;28;44868;-64
2023/04/20 11:47:51;;;;;;;2.17;1.40;;;23.00;45.40;;;;;;4904402;28;45286;-62
2023/04/20 11:50:17;;;;;;;1.10;1.00;;;22.90;45.40;;;;;;4896387;28;44719;-63
2023/04/20 11:52:42;;;;;;;1.17;1.00;;;22.90;45.50;;;;;;4917244;28;46595;-64
2023/04/20 11:55:09;;;;;;;2.67;1.30;;;22.90;45.50;;;;;;4918379;28;44717;-64
2023/04/20 11:57:35;;;;;;;2.60;1.00;;;22.80;45.60;;;;;;4915933;28;45948;-63
2023/04/20 12:00:11;;;;;;;1.40;1.00;;;22.80;45.60;;;;;;4922575;28;45301;-62
2023/04/20 12:02:40;;;;;;;1.70;1.08;;;22.80;45.70;;;;;;4895513;28;45406;-63
2023/04/20 12:05:07;;;;;;;2.17;1.20;;;22.80;45.80;;;;;;4909703;28;45637;-62
2023/04/20 12:07:32;;;;;;;2.88;1.33;;;22.70;45.70;;;;;;4893445;28;47333;-64
2023/04/20 12:09:58;;;;;;;1.57;0.90;;;22.70;45.80;;;;;;4916021;28;45699;-62
2023/04/20 12:12:25;;;;;;;2.40;1.00;;;22.70;45.90;;;;;;4895940;28;46083;-62
2023/04/20 12:14:50;;;;;;;2.50;1.10;;;22.70;45.90;;;;;;4919504;28;45720;-62
2023/04/20 12:17:16;;;;;;;1.50;1.30;;;22.60;45.90;;;;;;4878000;28;45273;-63
2023/04/20 12:19:41;;;;;;;1.20;1.07;;;22.60;46.00;;;;;;4895329;28;45338;-64
2023/04/20 12:22:07;;;;;;;3.50;1.40;;;22.60;46.60;;;;;;4915959;28;45401;-64
2023/04/20 12:24:32;;;;;;;1.57;1.20;;;22.60;46.10;;;;;;4911084;28;45220;-62
2023/04/20 12:26:58;;;;;;;1.60;1.20;;;22.60;46.10;;;;;;4918122;28;46040;-63
2023/04/20 12:29:24;;;;;;;1.90;1.20;;;22.50;46.10;;;;;;4920163;28;45314;-62
2023/04/20 12:31:49;;;;;;;2.90;1.20;;;22.50;46.20;;;;;;4905634;28;45363;-61
2023/04/20 12:34:15;;;;;;;1.83;1.20;;;22.50;46.20;;;;;;4919951;28;44774;-63
2023/04/20 12:36:40;;;;;;;1.50;1.20;;;22.50;46.30;;;;;;4882037;28;46845;-63
2023/04/20 12:39:06;;;;;;;1.83;1.20;;;22.40;46.30;;;;;;4921666;28;45283;-63
2023/04/20 12:41:32;;;;;;;1.73;1.10;;;22.40;46.30;;;;;;4863179;28;45363;-63
2023/04/20 12:43:57;;;;;;;2.57;1.20;;;22.40;46.40;;;;;;4883572;28;45667;-63
2023/04/20 12:46:24;;;;;;;1.77;1.30;;;22.40;46.40;;;;;;4912527;28;45719;-63
2023/04/20 12:48:49;;;;;;;3.47;1.33;;;22.40;46.50;;;;;;4920460;28;45528;-64
2023/04/20 12:51:15;;;;;;;2.10;1.10;;;22.40;46.50;;;;;;4911169;28;44678;-63
2023/04/20 12:53:41;;;;;;;1.63;1.40;;;22.30;46.50;;;;;;4897522;28;46260;-62
2023/04/20 12:56:06;;;;;;;2.60;1.30;;;22.30;46.50;;;;;;4856033;28;45458;-62
2023/04/20 12:58:32;;;;;;;2.90;1.20;;;22.30;46.50;;;;;;4900672;28;45200;-62
2023/04/20 13:00:57;;;;;;;2.13;1.20;;;22.30;46.70;;;;;;4907065;28;45518;-62
2023/04/20 13:03:23;;;;;;;2.57;1.27;;;22.30;46.60;;;;;;4887750;28;45183;-62
2023/04/20 13:05:50;;;;;;;2.35;0.80;;;22.20;46.60;;;;;;4879216;28;45921;-63
2023/04/20 13:08:16;;;;;;;1.33;1.20;;;21.90;47.30;;;;;;4920451;28;45046;-62
2023/04/20 13:10:42;;;;;;;1.38;1.05;;;21.70;47.70;;;;;;4908584;28;45314;-64
2023/04/20 13:13:09;;;;;;;2.80;1.10;;;21.60;48.00;;;;;;4902589;28;44777;-63
2023/04/20 13:15:35;;;;;;;3.50;1.00;;;21.50;48.10;;;;;;4876039;28;45244;-62
2023/04/20 13:18:01;;;;;;;1.85;1.02;;;21.40;48.20;;;;;;4920969;28;45134;-63
2023/04/20 13:20:28;;;;;;;3.33;1.40;;;21.40;48.30;;;;;;4912257;28;45232;-63
2023/04/20 13:23:00;;;;;;;2.05;1.23;;;21.30;48.30;;;;;;4914939;28;45884;-61
2023/04/20 13:25:27;;;;;;;1.63;1.00;;;21.30;48.40;;;;;;4892766;28;46166;-60
2023/04/20 13:27:53;;;;;;;1.55;1.20;;;21.20;48.40;;;;;;4911567;28;45634;-61
2023/04/20 13:30:19;;;;;;;2.75;1.08;;;21.20;48.50;;;;;;4888645;28;45697;-64
2023/04/20 13:32:44;;;;;;;1.48;1.17;;;21.20;48.60;;;;;;4881093;28;45783;-62
2023/04/20 13:35:11;;;;;;;3.90;1.30;;;21.20;48.60;;;;;;4896378;28;45926;-61
2023/04/20 13:37:38;;;;;;;1.75;1.15;;;21.10;48.70;;;;;;4914820;28;45078;-63
2023/04/20 13:40:05;;;;;;;1.40;1.23;;;21.10;48.70;;;;;;4897371;28;45370;-64
2023/04/20 13:42:31;;;;;;;4.22;1.20;;;21.10;48.80;;;;;;4883008;28;45299;-63
2023/04/20 13:44:56;;;;;;;1.40;1.20;;;21.00;48.80;;;;;;4919170;28;45333;-63
2023/04/20 13:47:23;;;;;;;2.22;0.90;;;21.00;48.90;;;;;;4912923;28;45131;-62
2023/04/20 13:49:48;;;;;;;2.08;1.20;;;21.00;48.90;;;;;;4902964;28;45502;-63
2023/04/20 13:52:14;;;;;;;2.05;1.30;;;21.00;49.00;;;;;;4878598;28;45617;-63
2023/04/20 13:54:39;;;;;;;2.03;1.45;;;21.00;49.00;;;;;;4918260;28;47151;-63
2023/04/20 13:57:05;;;;;;;1.60;1.15;;;20.90;49.00;;;;;;4893268;28;44713;-62
2023/04/20 13:59:31;;;;;;;1.52;1.10;;;20.90;49.10;;;;;;4895669;28;44838;-62
2023/04/20 14:01:56;;;;;;;1.58;1.10;;;20.90;49.20;;;;;;4902984;28;45285;-63
2023/04/20 14:04:22;;;;;;;1.55;1.00;;;20.90;49.20;;;;;;4919507;28;46376;-63
2023/04/20 14:06:47;;;;;;;1.95;1.23;;;20.90;49.30;;;;;;4916792;28;46098;-62
2023/04/20 14:09:13;;;;;;;2.08;1.25;;;20.80;49.30;;;;;;4922072;28;45377;-63
2023/04/20 14:11:39;;;;;;;0.90;0.80;;;20.80;49.30;;;;;;4880170;28;45343;-63
2023/04/20 14:14:04;;;;;;;3.20;1.13;;;20.80;49.30;;;;;;4897288;28;45482;-61
2023/04/20 14:16:30;;;;;;;1.02;0.90;;;20.70;49.40;;;;;;4911248;28;45564;-62
2023/04/20 14:18:56;;;;;;;2.40;1.10;;;20.80;49.50;;;;;;4897846;28;45191;-61
2023/04/20 14:21:21;;;;;;;1.48;1.20;;;20.70;49.50;;;;;;4891535;28;45238;-62
2023/04/20 14:23:52;;;;;;;1.38;1.10;;;20.70;49.50;;;;;;4898248;28;45455;-62
2023/04/20 14:26:19;;;;;;;2.38;1.33;;;20.70;49.60;;;;;;4897494;28;45348;-62
2023/04/20 14:28:45;;;;;;;0.98;0.90;;;20.70;49.70;;;;;;4920679;28;45020;-62
2023/04/20 14:31:11;;;;;;;2.45;1.40;;;20.70;49.70;;;;;;4910062;28;45205;-62
2023/04/20 14:33:37;;;;;;;1.60;1.50;;;20.60;49.60;;;;;;4898944;28;46247;-61
2023/04/20 14:36:03;;;;;;;4.72;1.25;;;20.60;49.70;;;;;;4888570;28;45169;-62
2023/04/20 14:38:28;;;;;;;1.92;1.10;;;20.60;49.80;;;;;;4899200;28;46128;-62
2023/04/20 14:40:54;;;;;;;1.52;1.02;;;20.60;49.80;;;;;;4878033;28;45982;-60
2023/04/20 14:43:19;;;;;;;2.38;1.20;;;20.60;49.90;;;;;;4921768;28;45257;-61
2023/04/20 14:45:45;;;;;;;3.28;1.60;;;20.50;50.00;;;;;;4906359;28;44634;-62
2023/04/20 14:48:11;;;;;;;1.80;1.10;;;20.50;50.00;;;;;;4900887;28;45543;-61
2023/04/20 14:50:39;;;;;;;1.30;1.02;;;20.50;50.00;;;;;;4919590;28;45328;-61
2023/04/20 14:53:05;;;;;;;2.15;1.15;;;20.50;50.10;;;;;;4907067;28;45099;-60
2023/04/20 14:55:31;;;;;;;1.30;1.20;;;20.40;50.10;;;;;;4913695;28;45858;-61
2023/04/20 14:57:56;;;;;;;1.17;1.08;;;20.40;50.10;;;;;;4922555;28;45407;-60
2023/04/20 15:00:23;;;;;;;1.52;1.00;;;20.40;50.20;;;;;;4890897;28;45353;-60
2023/04/20 15:02:49;;;;;;;2.40;1.35;;;20.30;50.20;;;;;;4878735;28;47523;-60
2023/04/20 15:05:15;;;;;;;2.10;1.40;;;20.30;50.20;;;;;;4917686;28;45418;-60
2023/04/20 15:07:41;;;;;;;1.73;1.20;;;20.30;50.30;;;;;;4882855;28;44681;-61
2023/04/20 15:10:08;;;;;;;1.65;1.13;;;20.30;50.30;;;;;;4898786;28;45502;-61
2023/04/20 15:12:33;;;;;;;1.48;1.38;;;20.30;50.30;;;;;;4902390;28;45627;-61
2023/04/20 15:14:59;;;;;;;1.60;1.15;;;20.20;50.30;;;;;;4901464;28;45369;-61
2023/04/20 15:17:24;;;;;;;3.42;1.27;;;20.20;50.40;;;;;;4911163;28;45367;-61
2023/04/20 15:19:50;;;;;;;2.85;1.55;;;20.20;50.40;;;;;;4921916;28;45795;-61
2023/04/20 15:22:15;;;;;;;2.33;1.05;;;20.20;50.50;;;;;;4918171;28;46918;-59
2023/04/20 15:24:41;;;;;;;1.45;1.15;;;20.10;50.40;;;;;;4917548;28;45490;-61
2023/04/20 15:27:07;;;;;;;1.23;1.13;;;20.10;50.50;;;;;;4915707;28;45318;-60
2023/04/20 15:29:32;;;;;;;3.47;1.10;;;20.10;50.50;;;;;;4903854;28;45694;-59
2023/04/20 15:31:58;;;;;;;1.40;1.00;;;20.10;50.50;;;;;;4892809;28;45378;-60
2023/04/20 15:34:24;;;;;;;1.70;1.10;;;20.10;50.60;;;;;;4921835;28;45410;-61
2023/04/20 15:36:49;;;;;;;1.33;1.23;;;20.00;50.60;;;;;;4911293;28;45244;-61
2023/04/20 15:39:15;;;;;;;1.30;1.20;;;20.00;50.60;;;;;;4916802;28;45178;-61
2023/04/20 15:41:41;;;;;;;1.52;1.02;;;20.00;50.70;;;;;;4891744;28;46112;-61
2023/04/20 15:44:06;;;;;;;1.52;1.20;;;20.00;50.70;;;;;;4922765;28;45011;-62
2023/04/20 15:46:32;;;;;;;1.58;1.20;;;20.00;50.70;;;;;;4889388;28;45874;-61
2023/04/20 15:48:57;;;;;;;1.70;1.50;;;20.00;50.80;;;;;;4917360;28;46201;-62
2023/04/20 15:51:23;;;;;;;1.58;1.10;;;19.90;50.70;;;;;;4905964;28;46887;-62
2023/04/20 15:53:50;;;;;;;1.60;1.25;;;19.90;50.70;;;;;;4895599;28;45179;-61
2023/04/20 15:56:21;;;;;;;1.33;1.23;;;19.80;50.70;;;;;;4894839;28;45410;-60
2023/04/20 15:58:50;;;;;;;1.98;1.10;;;19.80;50.80;;;;;;4922613;28;46113;-61
2023/04/20 16:01:16;;;;;;;1.60;1.15;;;19.80;50.80;;;;;;4886459;28;46145;-61
2023/04/20 16:03:42;;;;;;;1.40;1.15;;;19.80;50.80;;;;;;4897563;28;45421;-62